Current Conditions
Partly Cloudy
Conditions




Pressure
1038.92 (hPa) - 30.68 (inHG)
Visibility

10.0 (km) - 6.2 (miles)
   Temperature
4  °C
39°F
-1  °C
Dewpoint
70  %
 Humidity
   Wind Speed
19  km/h
10  kts
12  mph
5.4  m/s
   Wind Direction
 330°
North North
West
   Airport Data
LTBA
Location Atatürk International 10 km (6.22 mi)
Metar :LTBA 211050Z 33010KT 9999 FEW020 BKN030 04/M01 Q1039 NOSIG RMK RWY17L 33010KT RWY05 34008KT 320V020 RWY23 35009KT
Tue 21st January 13:50 pm
   Raw Metar Info
Raw METAR is the most common format in the world for the transmission of observational weather data. It is highly standardized through the International Civil Aviation Organization (ICAO), which allows it to be understood throughout most of the world.
   API Info
Data Provided by
https://www.checkwx.com/weather/
   © Info
CSS/SVG/PHP scripts were developed by weather34.com for use in the weather34 template © 2015-2020

Guide Info provided by Metar-Wikipedia